createdAt,value
2018-12-03T00:01:42.097Z,99520.68
2018-12-03T00:04:25.994Z,99515.28
2018-12-03T00:06:55.010Z,99518.96
2018-12-03T00:09:24.070Z,99517.52
2018-12-03T00:11:52.979Z,99519.60
2018-12-03T00:14:21.868Z,99524.30
2018-12-03T00:16:50.782Z,99514.27
2018-12-03T00:19:19.773Z,99521.25
2018-12-03T00:21:48.801Z,99521.84
2018-12-03T00:24:17.641Z,99521.64
2018-12-03T00:26:46.542Z,99519.61
2018-12-03T00:29:15.651Z,99518.16
2018-12-03T00:31:44.626Z,99517.14
2018-12-03T00:34:13.766Z,99519.17
2018-12-03T00:36:42.713Z,99528.23
2018-12-03T00:39:11.672Z,99528.00
2018-12-03T00:41:40.546Z,99522.16
2018-12-03T00:44:09.402Z,99521.66
2018-12-03T00:46:38.255Z,99515.31
2018-12-03T00:49:07.389Z,99516.25
2018-12-03T00:51:36.271Z,99518.59
2018-12-03T00:54:05.234Z,99514.91
2018-12-03T00:56:34.314Z,99513.58
2018-12-03T00:59:09.492Z,99512.64
2018-12-03T01:01:38.686Z,99514.80
2018-12-03T01:04:07.664Z,99522.91
2018-12-03T01:06:36.579Z,99515.31
2018-12-03T01:09:08.904Z,99523.11
2018-12-03T01:11:38.219Z,99516.14
2018-12-03T01:14:07.075Z,99517.08
2018-12-03T01:16:36.009Z,99517.78
2018-12-03T01:19:05.177Z,99513.78
2018-12-03T01:21:34.450Z,99521.19
2018-12-03T01:24:03.475Z,99519.63
2018-12-03T01:26:32.387Z,99526.09
2018-12-03T01:29:01.302Z,99522.09
2018-12-03T01:31:30.801Z,99516.88
2018-12-03T01:33:59.740Z,99524.25
2018-12-03T01:36:28.604Z,99532.25
2018-12-03T01:38:57.440Z,99538.52
2018-12-03T01:41:26.434Z,99542.40
2018-12-03T01:43:55.250Z,99533.92
2018-12-03T01:46:24.140Z,99537.07
2018-12-03T01:48:53.078Z,99534.03
2018-12-03T01:51:21.945Z,99536.91
2018-12-03T01:53:51.018Z,99536.82
2018-12-03T01:56:19.944Z,99542.34
2018-12-03T01:58:48.878Z,99533.41
2018-12-03T02:01:17.748Z,99526.16
2018-12-03T02:03:46.589Z,99524.19
2018-12-03T02:06:15.530Z,99526.23
2018-12-03T02:08:44.433Z,99521.73
2018-12-03T02:11:13.374Z,99522.75
2018-12-03T02:13:42.231Z,99521.92
2018-12-03T02:16:11.123Z,99517.41
2018-12-03T02:18:40.349Z,99520.28
2018-12-03T02:21:09.340Z,99514.16
2018-12-03T02:23:38.180Z,99524.28
2018-12-03T02:26:07.033Z,99521.22
2018-12-03T02:28:36.147Z,99525.53
2018-12-03T02:31:05.326Z,99531.99
2018-12-03T02:33:34.211Z,99524.00
2018-12-03T02:36:03.048Z,99526.46
2018-12-03T02:38:32.219Z,99526.46
2018-12-03T02:41:01.108Z,99519.88
2018-12-03T02:43:30.044Z,99518.86
2018-12-03T02:45:58.877Z,99520.81
2018-12-03T02:48:27.709Z,99519.48
2018-12-03T02:50:56.579Z,99528.89
2018-12-03T02:53:25.443Z,99531.28
2018-12-03T02:55:54.312Z,99525.63
2018-12-03T02:58:23.098Z,99521.44
2018-12-03T03:00:52.091Z,99530.84
2018-12-03T03:03:20.962Z,99537.31
2018-12-03T03:05:50.141Z,99541.94
2018-12-03T03:08:18.983Z,99535.66
2018-12-03T03:10:48.202Z,99541.81
2018-12-03T03:13:17.411Z,99536.69
2018-12-03T03:15:46.560Z,99536.39
2018-12-03T03:18:15.758Z,99527.97
2018-12-03T03:20:44.621Z,99536.80
2018-12-03T03:23:13.493Z,99536.28
2018-12-03T03:25:42.363Z,99534.64
2018-12-03T03:28:11.236Z,99531.46
2018-12-03T03:30:40.096Z,99538.75
2018-12-03T03:33:09.042Z,99539.57
2018-12-03T03:35:38.074Z,99531.26
2018-12-03T03:38:06.953Z,99532.08
2018-12-03T03:40:35.934Z,99528.59
2018-12-03T03:43:04.843Z,99520.67
2018-12-03T03:45:33.674Z,99518.95
2018-12-03T03:48:02.625Z,99520.91
2018-12-03T03:50:31.499Z,99514.55
2018-12-03T03:53:00.352Z,99518.95
2018-12-03T03:55:29.214Z,99518.75
2018-12-03T03:57:58.065Z,99520.28
2018-12-03T04:00:26.933Z,99525.81
2018-12-03T04:02:56.105Z,99525.22
2018-12-03T04:05:24.940Z,99526.95
2018-12-03T04:07:53.867Z,99526.23
2018-12-03T04:10:22.760Z,99525.30
2018-12-03T04:12:51.661Z,99523.97
2018-12-03T04:15:20.539Z,99525.41
2018-12-03T04:17:49.630Z,99518.00
2018-12-03T04:20:19.686Z,99521.50
2018-12-03T04:22:53.001Z,99520.08
2018-12-03T04:25:21.880Z,99518.23
2018-12-03T04:27:51.034Z,99514.55
2018-12-03T04:30:21.291Z,99510.44
2018-12-03T04:32:50.427Z,99504.08
2018-12-03T04:35:19.223Z,99512.08
2018-12-03T04:37:48.189Z,99501.80
2018-12-03T04:40:17.700Z,99505.48
2018-12-03T04:42:46.690Z,99495.06
2018-12-03T04:45:17.825Z,99487.44
2018-12-03T04:47:47.557Z,99497.49
2018-12-03T04:50:18.640Z,99499.13
2018-12-03T04:52:47.580Z,99505.48
2018-12-03T04:55:18.133Z,99499.13
2018-12-03T04:57:47.059Z,99500.78
2018-12-03T05:00:18.321Z,99492.47
2018-12-03T05:02:48.589Z,99503.76
2018-12-03T05:05:17.394Z,99494.94
2018-12-03T05:07:46.253Z,99494.83
2018-12-03T05:10:16.548Z,99494.42
2018-12-03T05:12:47.021Z,99497.29
2018-12-03T05:15:15.983Z,99499.13
2018-12-03T05:17:45.104Z,99491.75
2018-12-03T05:20:16.399Z,99488.88
2018-12-03T05:22:51.658Z,99488.06
2018-12-03T05:25:20.856Z,99486.53
2018-12-03T05:27:49.840Z,99486.30
2018-12-03T05:30:18.905Z,99483.63
2018-12-03T05:32:48.225Z,99475.94
2018-12-03T05:35:20.130Z,99478.02
2018-12-03T05:37:49.020Z,99476.25
2018-12-03T05:40:33.003Z,99473.89
2018-12-03T05:43:01.860Z,99467.11
2018-12-03T05:45:31.016Z,99472.14
2018-12-03T05:47:59.880Z,99472.24
2018-12-03T05:50:28.809Z,99478.81
2018-12-03T05:52:57.899Z,99477.77
2018-12-03T05:55:27.168Z,99482.58
2018-12-03T05:57:56.706Z,99486.38
2018-12-03T06:00:26.076Z,99485.36
2018-12-03T06:02:54.998Z,99488.34
2018-12-03T06:05:24.064Z,99491.63
2018-12-03T06:07:53.054Z,99490.59
2018-12-03T06:10:23.159Z,99479.11
2018-12-03T06:12:52.170Z,99486.69
2018-12-03T06:15:21.944Z,99477.66
2018-12-03T06:17:52.350Z,99476.73
2018-12-03T06:20:22.386Z,99482.69
2018-12-03T06:22:53.703Z,99477.55
2018-12-03T06:25:24.362Z,99483.72
2018-12-03T06:27:53.945Z,99478.07
2018-12-03T06:30:23.959Z,99478.17
2018-12-03T06:32:53.238Z,99477.87
2018-12-03T06:35:22.684Z,99484.33
2018-12-03T06:37:51.811Z,99477.87
2018-12-03T06:40:23.324Z,99473.36
2018-12-03T06:42:52.575Z,99467.41
2018-12-03T06:45:22.551Z,99470.38
2018-12-03T06:47:59.575Z,99468.42
2018-12-03T06:50:28.646Z,99471.40
2018-12-03T06:52:57.815Z,99469.25
2018-12-03T06:55:26.639Z,99472.02
2018-12-03T06:57:55.475Z,99470.58
2018-12-03T07:00:25.461Z,99469.66
2018-12-03T07:02:54.415Z,99468.53
2018-12-03T07:05:23.353Z,99471.40
2018-12-03T07:07:53.887Z,99467.70
2018-12-03T07:10:23.771Z,99476.95
2018-12-03T07:12:55.237Z,99473.53
2018-12-03T07:15:24.130Z,99475.17
2018-12-03T07:17:56.455Z,99476.52
2018-12-03T07:20:25.362Z,99481.84
2018-12-03T07:22:54.281Z,99478.98
2018-12-03T07:25:23.108Z,99488.00
2018-12-03T07:27:52.164Z,99494.66
2018-12-03T07:30:23.787Z,99495.67
2018-12-03T07:32:53.179Z,99488.80
2018-12-03T07:35:22.942Z,99490.96
2018-12-03T07:37:54.037Z,99493.62
2018-12-03T07:40:22.998Z,99502.77
2018-12-03T07:42:52.260Z,99500.48
2018-12-03T07:45:22.271Z,99504.48
2018-12-03T07:47:51.115Z,99504.48
2018-12-03T07:50:24.015Z,99499.77
2018-12-03T07:52:53.178Z,99499.77
2018-12-03T07:55:25.169Z,99500.07
2018-12-03T07:58:00.644Z,99503.15
2018-12-03T08:00:33.519Z,99490.42
2018-12-03T08:03:02.441Z,99496.38
2018-12-03T08:05:31.550Z,99493.09
2018-12-03T08:08:00.403Z,99486.11
2018-12-03T08:10:29.939Z,99494.12
2018-12-03T08:12:58.800Z,99493.53
2018-12-03T08:15:27.662Z,99500.92
2018-12-03T08:17:59.383Z,99493.94
2018-12-03T08:20:33.520Z,99490.24
2018-12-03T08:23:04.901Z,99483.88
2018-12-03T08:25:34.046Z,99484.38
2018-12-03T08:28:03.037Z,99488.55
2018-12-03T08:30:31.857Z,99487.96
2018-12-03T08:33:00.736Z,99483.14
2018-12-03T08:35:29.690Z,99485.88
2018-12-03T08:38:03.351Z,99489.88
2018-12-03T08:40:27.774Z,99492.86
2018-12-03T08:42:56.569Z,99500.94
2018-12-03T08:45:26.536Z,99495.67
2018-12-03T08:47:55.377Z,99491.30
2018-12-03T08:50:25.635Z,99496.73
2018-12-03T08:52:55.430Z,99490.03
2018-12-03T08:55:24.307Z,99487.22
2018-12-03T08:57:53.301Z,99496.66
2018-12-03T09:00:24.908Z,99486.87
2018-12-03T09:03:06.971Z,99486.77
2018-12-03T09:05:38.081Z,99485.28
2018-12-03T09:08:08.742Z,99489.29
2018-12-03T09:10:37.836Z,99480.65
2018-12-03T09:13:09.463Z,99486.46
2018-12-03T09:15:38.421Z,99479.95
2018-12-03T09:18:07.706Z,99480.75
2018-12-03T09:20:37.761Z,99491.97
2018-12-03T09:23:07.579Z,99498.34
2018-12-03T09:25:36.376Z,99499.10
2018-12-03T09:28:05.668Z,99495.09
2018-12-03T09:30:34.551Z,99487.66
2018-12-03T09:33:03.544Z,99491.08
2018-12-03T09:35:32.817Z,99492.61
2018-12-03T09:38:01.868Z,99483.88
2018-12-03T09:40:31.512Z,99489.28
2018-12-03T09:43:00.468Z,99485.37
2018-12-03T09:45:29.413Z,99488.25
2018-12-03T09:47:59.057Z,99493.59
2018-12-03T09:50:29.435Z,99496.67
2018-12-03T09:52:58.516Z,99495.33
2018-12-03T09:55:32.814Z,99496.36
2018-12-03T09:58:24.194Z,99492.88
2018-12-03T10:00:53.853Z,99483.00
2018-12-03T10:03:24.930Z,99485.46
2018-12-03T10:06:00.618Z,99490.87
2018-12-03T10:08:31.556Z,99484.64
2018-12-03T10:11:03.158Z,99474.98
2018-12-03T10:13:32.974Z,99478.54
2018-12-03T10:16:02.336Z,99478.27
2018-12-03T10:18:31.476Z,99475.29
2018-12-03T10:21:01.758Z,99475.14
2018-12-03T10:23:30.643Z,99477.81
2018-12-03T10:26:01.285Z,99483.42
2018-12-03T10:28:30.583Z,99477.19
2018-12-03T10:30:59.829Z,99470.58
2018-12-03T10:33:31.185Z,99471.84
2018-12-03T10:36:02.172Z,99472.31
2018-12-03T10:38:35.748Z,99472.22
2018-12-03T10:41:09.565Z,99466.52
2018-12-03T10:43:38.557Z,99463.78
2018-12-03T10:46:09.363Z,99473.03
2018-12-03T10:48:38.194Z,99468.72
2018-12-03T10:51:12.079Z,99472.00
2018-12-03T10:53:40.913Z,99467.48
2018-12-03T10:56:09.704Z,99472.92
2018-12-03T10:58:41.036Z,99464.40
2018-12-03T11:01:15.362Z,99468.80
2018-12-03T11:03:49.566Z,99474.45
2018-12-03T11:06:20.641Z,99476.09
2018-12-03T11:08:49.663Z,99479.53
2018-12-03T11:11:18.872Z,99480.75
2018-12-03T11:13:47.814Z,99482.70
2018-12-03T11:16:26.188Z,99474.98
2018-12-03T11:18:56.401Z,99483.15
2018-12-03T11:21:26.102Z,99476.13
2018-12-03T11:23:55.330Z,99467.25
2018-12-03T11:26:34.373Z,99464.58
2018-12-03T11:29:04.598Z,99470.59
2018-12-03T11:31:34.622Z,99465.64
2018-12-03T11:34:03.469Z,99462.14
2018-12-03T11:36:42.400Z,99463.33
2018-12-03T11:39:19.442Z,99465.24
2018-12-03T11:41:50.742Z,99455.06
2018-12-03T11:44:21.573Z,99447.80
2018-12-03T11:46:51.954Z,99452.39
2018-12-03T11:49:22.336Z,99449.95
2018-12-03T11:51:51.213Z,99448.84
2018-12-03T11:54:20.102Z,99441.17
2018-12-03T11:56:49.042Z,99446.09
2018-12-03T11:59:18.100Z,99451.02
2018-12-03T12:01:46.951Z,99450.55
2018-12-03T12:04:15.834Z,99446.47
2018-12-03T12:06:44.687Z,99457.70
2018-12-03T12:09:14.220Z,99459.87
2018-12-03T12:11:43.494Z,99453.78
2018-12-03T12:14:26.775Z,99454.35
2018-12-03T12:16:56.258Z,99456.30
2018-12-03T12:19:25.090Z,99466.32
2018-12-03T12:21:54.098Z,99462.09
2018-12-03T12:24:22.989Z,99472.80
2018-12-03T12:26:53.528Z,99465.80
2018-12-03T12:29:22.443Z,99475.31
2018-12-03T12:31:51.343Z,99476.81
2018-12-03T12:34:20.234Z,99479.05
2018-12-03T12:36:49.123Z,99468.34
2018-12-03T12:39:18.293Z,99467.22
2018-12-03T12:41:48.559Z,99468.34
2018-12-03T12:44:18.235Z,99473.39
2018-12-03T12:46:50.190Z,99475.53
2018-12-03T12:49:19.354Z,99465.28
2018-12-03T12:51:51.546Z,99471.75
2018-12-03T12:54:19.781Z,99474.34
2018-12-03T12:56:48.659Z,99471.75
2018-12-03T12:59:18.930Z,99479.20
2018-12-03T13:01:48.419Z,99477.27
2018-12-03T13:04:17.355Z,99485.90
2018-12-03T13:06:46.709Z,99487.15
2018-12-03T13:09:16.011Z,99478.00
2018-12-03T13:11:44.900Z,99476.66
2018-12-03T13:14:15.775Z,99482.23
2018-12-03T13:16:45.029Z,99489.30
2018-12-03T13:19:13.943Z,99483.85
2018-12-03T13:21:42.945Z,99483.33
2018-12-03T13:24:12.473Z,99486.53
2018-12-03T13:26:43.373Z,99482.89
2018-12-03T13:29:12.438Z,99478.59
2018-12-03T13:31:41.854Z,99483.72
2018-12-03T13:34:10.989Z,99484.97
2018-12-03T13:36:40.188Z,99486.26
2018-12-03T13:39:10.690Z,99486.84
2018-12-03T13:41:40.822Z,99490.63
2018-12-03T13:44:10.302Z,99485.70
2018-12-03T13:46:39.653Z,99488.22
2018-12-03T13:49:09.305Z,99489.38
2018-12-03T13:51:39.024Z,99484.48
2018-12-03T13:54:08.341Z,99488.50
2018-12-03T13:56:38.528Z,99477.72
2018-12-03T13:59:07.519Z,99487.08
2018-12-03T14:01:38.334Z,99482.97
2018-12-03T14:04:12.022Z,99487.44
2018-12-03T14:06:55.857Z,99485.41
2018-12-03T14:10:18.985Z,99482.66
2018-12-03T14:13:03.196Z,99485.45
2018-12-03T14:15:42.971Z,99485.91
2018-12-03T14:18:38.431Z,99488.89
2018-12-03T14:21:13.380Z,99493.02
2018-12-03T14:23:42.613Z,99491.08
2018-12-03T14:26:11.807Z,99488.70
2018-12-03T14:28:40.667Z,99498.52
2018-12-03T14:31:09.486Z,99501.19
2018-12-03T14:33:38.349Z,99495.75
2018-12-03T14:36:07.400Z,99495.28
2018-12-03T14:38:36.359Z,99506.48
2018-12-03T14:41:05.214Z,99516.78
2018-12-03T14:43:34.279Z,99516.72
2018-12-03T14:46:03.562Z,99511.48
2018-12-03T14:48:32.556Z,99513.78
2018-12-03T14:51:01.429Z,99514.36
2018-12-03T14:53:30.288Z,99518.00
2018-12-03T14:55:59.234Z,99518.38
2018-12-03T14:58:28.034Z,99512.05
2018-12-03T15:00:57.030Z,99520.28
2018-12-03T15:03:26.384Z,99518.36
2018-12-03T15:05:55.313Z,99523.09
2018-12-03T15:08:24.108Z,99525.08
2018-12-03T15:10:53.506Z,99526.93
2018-12-03T15:13:23.327Z,99525.39
2018-12-03T15:15:51.933Z,99529.54
2018-12-03T15:18:20.865Z,99531.18
2018-12-03T15:20:53.632Z,99534.88
2018-12-03T15:23:22.607Z,99531.28
2018-12-03T15:25:51.498Z,99537.24
2018-12-03T15:28:20.378Z,99536.11
2018-12-03T15:30:49.166Z,99533.89
2018-12-03T15:33:18.086Z,99531.73
2018-12-03T15:35:47.132Z,99539.64
2018-12-03T15:38:16.274Z,99534.98
2018-12-03T15:40:45.239Z,99538.30
2018-12-03T15:43:14.076Z,99542.00
2018-12-03T15:45:43.131Z,99547.45
2018-12-03T15:48:12.358Z,99550.97
2018-12-03T15:50:41.462Z,99557.23
2018-12-03T15:53:10.621Z,99567.41
2018-12-03T15:55:39.801Z,99557.88
2018-12-03T15:58:08.703Z,99561.06
2018-12-03T16:00:38.331Z,99555.75
2018-12-03T16:03:06.897Z,99556.16
2018-12-03T16:05:36.087Z,99552.87
2018-12-03T16:08:05.302Z,99551.97
2018-12-03T16:10:34.150Z,99549.89
2018-12-03T16:13:03.250Z,99552.28
2018-12-03T16:15:32.537Z,99550.02
2018-12-03T16:18:01.385Z,99554.53
2018-12-03T16:20:30.314Z,99560.28
2018-12-03T16:22:59.222Z,99558.95
2018-12-03T16:25:28.098Z,99563.08
2018-12-03T16:27:57.046Z,99559.28
2018-12-03T16:30:26.551Z,99560.30
2018-12-03T16:32:55.446Z,99558.37
2018-12-03T16:35:24.479Z,99556.94
2018-12-03T16:37:53.400Z,99555.50
2018-12-03T16:40:22.502Z,99549.97
2018-12-03T16:42:51.507Z,99563.01
2018-12-03T16:45:20.537Z,99568.66
2018-12-03T16:47:49.397Z,99572.34
2018-12-03T16:50:18.285Z,99571.94
2018-12-03T16:52:47.382Z,99568.25
2018-12-03T16:55:16.457Z,99566.60
2018-12-03T16:57:45.471Z,99566.91
2018-12-03T17:00:15.839Z,99566.17
2018-12-03T17:02:44.608Z,99568.66
2018-12-03T17:05:13.709Z,99567.01
2018-12-03T17:07:42.720Z,99568.03
2018-12-03T17:10:17.855Z,99570.19
2018-12-03T17:12:47.994Z,99569.27
2018-12-03T17:15:16.965Z,99567.42
2018-12-03T17:17:46.300Z,99563.62
2018-12-03T17:21:24.691Z,99567.63
2018-12-03T17:24:00.784Z,99565.27
2018-12-03T17:26:30.059Z,99573.27
2018-12-03T17:28:59.204Z,99572.34
2018-12-03T17:31:28.416Z,99583.02
2018-12-03T17:33:57.398Z,99586.52
2018-12-03T17:36:26.697Z,99586.32
2018-12-03T17:38:55.633Z,99589.59
2018-12-03T17:41:24.737Z,99587.76
2018-12-03T17:43:53.991Z,99588.06
2018-12-03T17:46:23.204Z,99586.22
2018-12-03T17:48:52.322Z,99588.38
2018-12-03T17:51:21.661Z,99587.45
2018-12-03T17:53:50.995Z,99578.23
2018-12-03T17:56:20.541Z,99583.25
2018-12-03T17:58:49.763Z,99580.89
2018-12-03T18:01:19.021Z,99576.89
2018-12-03T18:03:48.169Z,99570.75
2018-12-03T18:06:17.283Z,99571.77
2018-12-03T18:08:46.533Z,99571.34
2018-12-03T18:11:15.961Z,99570.83
2018-12-03T18:13:45.125Z,99573.22
2018-12-03T18:16:14.261Z,99573.62
2018-12-03T18:18:43.327Z,99571.35
2018-12-03T18:21:12.390Z,99567.47
2018-12-03T18:23:41.482Z,99569.83
2018-12-03T18:26:10.496Z,99564.80
2018-12-03T18:28:39.288Z,99566.96
2018-12-03T18:31:08.587Z,99567.78
2018-12-03T18:33:38.374Z,99575.05
2018-12-03T18:36:07.197Z,99584.06
2018-12-03T18:38:36.603Z,99579.98
2018-12-03T18:41:06.093Z,99571.36
2018-12-03T18:43:35.121Z,99568.06
2018-12-03T18:46:05.504Z,99569.71
2018-12-03T18:48:35.237Z,99565.48
2018-12-03T18:51:04.426Z,99564.74
2018-12-03T18:53:33.536Z,99562.70
2018-12-03T18:56:02.616Z,99562.58
2018-12-03T18:58:40.260Z,99569.16
2018-12-03T19:01:09.391Z,99559.64
2018-12-03T19:03:38.500Z,99565.05
2018-12-03T19:06:08.940Z,99557.76
2018-12-03T19:08:37.773Z,99560.34
2018-12-03T19:11:06.735Z,99557.75
2018-12-03T19:13:35.593Z,99563.00
2018-12-03T19:16:04.460Z,99559.28
2018-12-03T19:18:33.362Z,99563.59
2018-12-03T19:21:02.244Z,99565.05
2018-12-03T19:23:31.403Z,99567.00
2018-12-03T19:26:00.844Z,99566.37
2018-12-03T19:28:29.725Z,99560.72
2018-12-03T19:30:58.522Z,99567.18
2018-12-03T19:33:27.463Z,99562.55
2018-12-03T19:35:56.402Z,99557.34
2018-12-03T19:38:25.235Z,99558.36
2018-12-03T19:40:54.545Z,99557.42
2018-12-03T19:43:23.455Z,99549.94
2018-12-03T19:45:53.257Z,99555.88
2018-12-03T19:48:48.298Z,99558.74
2018-12-03T19:51:16.229Z,99558.03
2018-12-03T19:53:43.806Z,99562.03
2018-12-03T19:56:11.506Z,99559.45
2018-12-03T19:58:39.155Z,99566.92
2018-12-03T20:01:06.861Z,99573.78
2018-12-03T20:03:34.558Z,99581.77
2018-12-03T20:06:02.132Z,99574.70
2018-12-03T20:08:29.985Z,99581.48
2018-12-03T20:10:57.739Z,99576.74
2018-12-03T20:13:25.306Z,99580.73
2018-12-03T20:15:52.853Z,99581.86
2018-12-03T20:18:25.893Z,99581.64
2018-12-03T20:20:53.655Z,99578.35
2018-12-03T20:23:21.279Z,99577.72
2018-12-03T20:25:51.213Z,99580.19
2018-12-03T20:28:19.866Z,99578.03
2018-12-03T20:30:47.856Z,99571.19
2018-12-03T20:33:15.465Z,99564.02
2018-12-03T20:35:43.126Z,99561.43
2018-12-03T20:38:10.739Z,99560.01
2018-12-03T20:40:38.753Z,99559.37
2018-12-03T20:43:06.290Z,99556.84
2018-12-03T20:45:37.879Z,99559.69
2018-12-03T20:48:06.316Z,99562.77
2018-12-03T20:50:33.943Z,99567.58
2018-12-03T20:53:01.507Z,99572.59
2018-12-03T20:55:29.098Z,99582.01
2018-12-03T20:57:56.712Z,99577.07
2018-12-03T21:00:24.650Z,99567.73
2018-12-03T21:02:52.317Z,99563.23
2018-12-03T21:05:19.900Z,99553.02
2018-12-03T21:07:47.462Z,99562.74
2018-12-03T21:10:15.053Z,99558.43
2018-12-03T21:12:42.651Z,99554.44
2018-12-03T21:15:10.226Z,99555.77
2018-12-03T21:17:38.067Z,99561.41
2018-12-03T21:20:10.042Z,99553.42
2018-12-03T21:22:37.588Z,99555.38
2018-12-03T21:25:05.539Z,99548.84
2018-12-03T21:27:33.128Z,99545.77
2018-12-03T21:30:00.684Z,99541.66
2018-12-03T21:32:28.256Z,99539.62
2018-12-03T21:34:55.854Z,99539.41
2018-12-03T21:37:23.443Z,99530.98
2018-12-03T21:39:51.075Z,99536.22
2018-12-03T21:42:18.610Z,99537.23
2018-12-03T21:44:46.184Z,99537.81
2018-12-03T21:47:13.777Z,99541.55
2018-12-03T21:49:41.310Z,99541.40
2018-12-03T21:52:08.912Z,99535.03
2018-12-03T21:54:36.493Z,99534.23
2018-12-03T21:57:04.148Z,99535.98
2018-12-03T21:59:31.696Z,99533.63
2018-12-03T22:01:59.296Z,99530.44
2018-12-03T22:04:26.862Z,99531.96
2018-12-03T22:06:54.475Z,99537.27
2018-12-03T22:09:22.027Z,99532.25
2018-12-03T22:11:49.783Z,99532.04
2018-12-03T22:14:17.345Z,99540.34
2018-12-03T22:16:44.940Z,99541.35
2018-12-03T22:19:12.903Z,99546.45
2018-12-03T22:21:40.787Z,99550.73
2018-12-03T22:24:08.483Z,99545.59
2018-12-03T22:26:36.332Z,99545.51
2018-12-03T22:29:04.014Z,99554.34
2018-12-03T22:31:31.851Z,99561.02
2018-12-03T22:33:59.410Z,99558.99
2018-12-03T22:36:26.959Z,99558.67
2018-12-03T22:38:54.508Z,99569.64
2018-12-03T22:41:22.124Z,99568.56
2018-12-03T22:43:49.973Z,99579.66
2018-12-03T22:46:17.570Z,99581.71
2018-12-03T22:48:45.131Z,99583.67
2018-12-03T22:51:12.781Z,99577.02
2018-12-03T22:53:40.396Z,99581.71
2018-12-03T22:56:07.953Z,99579.48
2018-12-03T22:58:35.510Z,99571.82
2018-12-03T23:01:05.468Z,99579.33
2018-12-03T23:03:33.083Z,99577.48
2018-12-03T23:06:00.623Z,99581.56
2018-12-03T23:08:28.224Z,99582.30
2018-12-03T23:10:55.757Z,99581.06
2018-12-03T23:13:23.494Z,99586.48
2018-12-03T23:15:51.120Z,99582.17
2018-12-03T23:18:19.989Z,99582.20
2018-12-03T23:20:49.184Z,99588.01
2018-12-03T23:23:17.484Z,99587.00
2018-12-03T23:25:45.793Z,99589.84
2018-12-03T23:28:13.865Z,99584.30
2018-12-03T23:30:41.918Z,99583.86
2018-12-03T23:33:11.189Z,99582.73
2018-12-03T23:35:39.404Z,99575.47
2018-12-03T23:38:08.746Z,99575.53
2018-12-03T23:40:36.738Z,99573.89
2018-12-03T23:43:05.571Z,99565.91
2018-12-03T23:45:33.799Z,99571.23
2018-12-03T23:48:01.767Z,99572.27
2018-12-03T23:50:29.931Z,99574.14
2018-12-03T23:52:58.273Z,99577.40
2018-12-03T23:55:26.486Z,99583.14
2018-12-03T23:57:54.767Z,99585.58
